Time,TemperatureF,DewpointF,PressureIn,WindDirection,WindDirectionDegrees,WindSpeedMPH,WindSpeedGustMPH,Humidity,HourlyPrecipIn,Conditions,Clouds,dailyrainin,SolarRadiationWatts/m^2,SoftwareType,DateUTC
2013-02-10 00:01:00,47.5,39.0,30.05,SSE,159,0.0,-999.0,73,-99.99,,,0.00,0,weatherlink.com 1.10,2013-02-10 06:01:00,
2013-02-10 00:16:00,48.0,39.0,30.04,SSE,159,0.0,-999.0,72,-99.99,,,0.00,0,weatherlink.com 1.10,2013-02-10 06:16:00,
2013-02-10 00:31:00,48.5,39.0,30.04,SSE,159,0.0,-999.0,70,-99.99,,,0.00,0,weatherlink.com 1.10,2013-02-10 06:31:00,
2013-02-10 00:46:00,49.3,38.0,30.04,SSE,159,0.0,-999.0,66,-99.99,,,0.00,0,weatherlink.com 1.10,2013-02-10 06:46:00,
2013-02-10 01:02:00,49.9,38.0,30.04,SSE,159,0.0,-999.0,65,-99.99,,,0.00,0,weatherlink.com 1.10,2013-02-10 07:02:00,
2013-02-10 01:17:00,50.2,38.0,30.04,SSE,159,0.0,-999.0,64,-99.99,,,0.00,0,weatherlink.com 1.10,2013-02-10 07:17:00,
2013-02-10 01:32:00,50.4,39.0,30.04,SSE,159,0.0,-999.0,65,-99.99,,,0.00,0,weatherlink.com 1.10,2013-02-10 07:32:00,
2013-02-10 01:47:00,50.5,39.0,30.04,SSE,160,0.0,-999.0,65,-99.99,,,0.00,0,weatherlink.com 1.10,2013-02-10 07:47:00,
2013-02-10 02:02:00,50.7,39.0,30.03,SSE,159,0.0,-999.0,64,-99.99,,,0.00,0,weatherlink.com 1.10,2013-02-10 08:02:00,
2013-02-10 02:17:00,50.8,39.0,30.02,SSE,159,0.0,-999.0,64,-99.99,,,0.00,0,weatherlink.com 1.10,2013-02-10 08:17:00,
2013-02-10 02:32:00,51.0,39.0,30.01,SSE,159,0.0,-999.0,64,-99.99,,,0.00,0,weatherlink.com 1.10,2013-02-10 08:32:00,
2013-02-10 02:47:00,51.1,39.0,30.01,SSE,160,0.0,-999.0,64,-99.99,,,0.00,0,weatherlink.com 1.10,2013-02-10 08:47:00,
2013-02-10 03:02:00,51.3,39.0,30.00,SSE,159,0.0,-999.0,63,-99.99,,,0.00,0,weatherlink.com 1.10,2013-02-10 09:02:00,
2013-02-10 03:17:00,51.5,39.0,30.00,SSE,159,0.0,-999.0,62,-99.99,,,0.00,0,weatherlink.com 1.10,2013-02-10 09:17:00,
2013-02-10 03:32:00,51.9,39.0,29.98,SSE,160,0.0,-999.0,62,-99.99,,,0.00,0,weatherlink.com 1.10,2013-02-10 09:32:00,
2013-02-10 03:47:00,52.1,39.0,29.97,SSE,159,0.0,-999.0,61,-99.99,,,0.00,0,weatherlink.com 1.10,2013-02-10 09:47:00,
2013-02-10 04:02:00,52.3,39.0,29.96,South,181,0.0,-999.0,61,-99.99,,,0.00,0,weatherlink.com 1.10,2013-02-10 10:02:00,
2013-02-10 04:17:00,52.4,40.0,29.96,South,181,0.0,-999.0,62,-99.99,,,0.00,0,weatherlink.com 1.10,2013-02-10 10:17:00,
2013-02-10 04:32:00,52.5,40.0,29.95,South,181,0.0,-999.0,63,-99.99,,,0.00,0,weatherlink.com 1.10,2013-02-10 10:32:00,
2013-02-10 04:47:00,52.5,40.0,29.95,South,182,3.0,-999.0,63,-99.99,,,0.00,0,weatherlink.com 1.10,2013-02-10 10:47:00,
2013-02-10 05:02:00,52.7,41.0,29.94,SSE,165,1.0,-999.0,64,-99.99,,,0.00,0,weatherlink.com 1.10,2013-02-10 11:02:00,
2013-02-10 05:17:00,52.9,41.0,29.93,SE,145,0.0,-999.0,64,-99.99,,,0.00,0,weatherlink.com 1.10,2013-02-10 11:17:00,
2013-02-10 05:32:00,53.1,41.0,29.93,SSE,159,0.0,-999.0,64,-99.99,,,0.00,0,weatherlink.com 1.10,2013-02-10 11:32:00,
2013-02-10 05:47:00,53.2,42.0,29.93,SE,134,1.0,-999.0,65,-99.99,,,0.00,0,weatherlink.com 1.10,2013-02-10 11:47:00,
2013-02-10 06:02:00,53.3,43.0,29.93,SSE,155,0.0,-999.0,67,-99.99,,,0.00,0,weatherlink.com 1.10,2013-02-10 12:02:00,
2013-02-10 06:17:00,53.3,43.0,29.93,South,169,2.0,-999.0,68,-99.99,,,0.00,0,weatherlink.com 1.10,2013-02-10 12:17:00,
2013-02-10 06:32:00,53.4,44.0,29.92,SE,126,0.0,-999.0,70,-99.99,,,0.00,0,weatherlink.com 1.10,2013-02-10 12:32:00,
2013-02-10 06:47:00,53.5,44.0,29.91,SE,132,0.0,-999.0,71,-99.99,,,0.00,0,weatherlink.com 1.10,2013-02-10 12:47:00,
2013-02-10 07:02:00,53.7,45.0,29.91,SSE,149,0.0,-999.0,72,-99.99,,,0.00,0,weatherlink.com 1.10,2013-02-10 13:02:00,
2013-02-10 07:17:00,53.8,45.0,29.91,SSE,153,2.0,-999.0,73,-99.99,,,0.00,0,weatherlink.com 1.10,2013-02-10 13:17:00,
2013-02-10 07:32:00,53.8,46.0,29.89,ESE,108,0.0,-999.0,74,-99.99,,,0.00,12,weatherlink.com 1.10,2013-02-10 13:32:00,
2013-02-10 07:47:00,54.1,46.0,29.89,SE,133,0.0,-999.0,73,-99.99,,,0.00,9,weatherlink.com 1.10,2013-02-10 13:47:00,
2013-02-10 08:02:00,54.2,46.0,29.89,SSE,148,1.0,-999.0,73,-99.99,,,0.00,9,weatherlink.com 1.10,2013-02-10 14:02:00,
2013-02-10 08:17:00,54.2,47.0,29.90,SE,138,1.0,-999.0,76,-99.99,,,0.00,11,weatherlink.com 1.10,2013-02-10 14:17:00,
2013-02-10 08:32:00,53.8,48.0,29.90,South,178,2.0,-999.0,80,-99.99,,,0.01,5,weatherlink.com 1.10,2013-02-10 14:32:00,
2013-02-10 08:47:00,52.6,48.0,29.90,SSE,155,0.0,-999.0,83,-99.99,,,0.04,5,weatherlink.com 1.10,2013-02-10 14:47:00,
2013-02-10 09:02:00,51.7,47.0,29.89,SSE,161,2.0,-999.0,85,-99.99,,,0.11,12,weatherlink.com 1.10,2013-02-10 15:02:00,
2013-02-10 09:17:00,51.0,47.0,29.89,SE,142,0.0,-999.0,87,-99.99,,,0.12,12,weatherlink.com 1.10,2013-02-10 15:17:00,
2013-02-10 09:32:00,50.7,48.0,29.89,SE,144,0.0,-999.0,89,-99.99,,,0.12,7,weatherlink.com 1.10,2013-02-10 15:32:00,
2013-02-10 09:47:00,50.5,47.0,29.89,SE,144,0.0,-999.0,89,-99.99,,,0.12,0,weatherlink.com 1.10,2013-02-10 15:47:00,
2013-02-10 10:02:00,50.4,47.0,29.93,SSE,159,1.0,-999.0,89,-99.99,,,0.14,0,weatherlink.com 1.10,2013-02-10 16:02:00,
2013-02-10 10:17:00,50.4,48.0,29.94,SSW,212,0.0,-999.0,90,-99.99,,,0.17,11,weatherlink.com 1.10,2013-02-10 16:17:00,
2013-02-10 10:33:00,50.4,48.0,29.94,SSW,212,0.0,-999.0,91,-99.99,,,0.23,11,weatherlink.com 1.10,2013-02-10 16:33:00,
2013-02-10 10:48:00,50.5,48.0,29.94,SSW,212,0.0,-999.0,91,-99.99,,,0.30,14,weatherlink.com 1.10,2013-02-10 16:48:00,
2013-02-10 11:03:00,50.5,48.0,29.94,SSW,212,0.0,-999.0,91,-99.99,,,0.36,9,weatherlink.com 1.10,2013-02-10 17:03:00,
2013-02-10 11:18:00,50.5,48.0,29.95,SSW,212,0.0,-999.0,92,-99.99,,,0.41,5,weatherlink.com 1.10,2013-02-10 17:18:00,
2013-02-10 11:33:00,50.5,48.0,29.94,SSW,211,0.0,-999.0,92,-99.99,,,0.48,9,weatherlink.com 1.10,2013-02-10 17:33:00,
2013-02-10 11:48:00,50.5,48.0,29.93,SSW,210,0.0,-999.0,92,-99.99,,,0.59,21,weatherlink.com 1.10,2013-02-10 17:48:00,
2013-02-10 12:03:00,50.6,49.0,29.88,SSW,209,0.0,-999.0,93,-99.99,,,0.66,35,weatherlink.com 1.10,2013-02-10 18:03:00,
2013-02-10 12:18:00,50.7,49.0,29.76,ESE,123,2.0,-999.0,93,-99.99,,,0.69,49,weatherlink.com 1.10,2013-02-10 18:18:00,
2013-02-10 12:33:00,50.6,49.0,29.77,SSE,150,0.0,-999.0,93,-99.99,,,0.70,104,weatherlink.com 1.10,2013-02-10 18:33:00,
2013-02-10 12:48:00,51.3,50.0,29.77,ESE,111,0.0,-999.0,94,-99.99,,,0.70,185,weatherlink.com 1.10,2013-02-10 18:48:00,
2013-02-10 13:03:00,52.0,50.0,29.75,SSE,155,0.0,-999.0,94,-99.99,,,0.70,188,weatherlink.com 1.10,2013-02-10 19:03:00,
2013-02-10 13:18:00,52.8,51.0,29.75,SSE,154,0.0,-999.0,94,-99.99,,,0.70,193,weatherlink.com 1.10,2013-02-10 19:18:00,
2013-02-10 13:33:00,53.9,52.0,29.75,SSE,154,0.0,-999.0,93,-99.99,,,0.70,214,weatherlink.com 1.10,2013-02-10 19:33:00,
2013-02-10 13:48:00,54.7,53.0,29.75,SSE,154,0.0,-999.0,92,-99.99,,,0.70,192,weatherlink.com 1.10,2013-02-10 19:48:00,
2013-02-10 14:03:00,55.5,53.0,29.77,SSE,159,0.0,-999.0,90,-99.99,,,0.70,195,weatherlink.com 1.10,2013-02-10 20:03:00,
2013-02-10 14:18:00,55.9,53.0,29.78,SSE,159,0.0,-999.0,89,-99.99,,,0.70,185,weatherlink.com 1.10,2013-02-10 20:18:00,
2013-02-10 14:33:00,56.3,53.0,29.79,SSE,159,2.0,-999.0,88,-99.99,,,0.70,172,weatherlink.com 1.10,2013-02-10 20:33:00,
2013-02-10 14:48:00,56.4,53.0,29.79,South,174,0.0,-999.0,87,-99.99,,,0.70,149,weatherlink.com 1.10,2013-02-10 20:48:00,
2013-02-10 15:03:00,56.1,53.0,29.79,South,173,0.0,-999.0,88,-99.99,,,0.70,114,weatherlink.com 1.10,2013-02-10 21:03:00,
2013-02-10 15:18:00,56.3,53.0,29.79,South,181,0.0,-999.0,88,-99.99,,,0.70,144,weatherlink.com 1.10,2013-02-10 21:18:00,
2013-02-10 15:33:00,56.5,53.0,29.78,South,181,0.0,-999.0,88,-99.99,,,0.70,97,weatherlink.com 1.10,2013-02-10 21:33:00,
2013-02-10 15:48:00,56.6,53.0,29.77,South,181,0.0,-999.0,88,-99.99,,,0.70,102,weatherlink.com 1.10,2013-02-10 21:48:00,
2013-02-10 16:03:00,57.2,54.0,29.77,South,173,0.0,-999.0,88,-99.99,,,0.70,146,weatherlink.com 1.10,2013-02-10 22:03:00,
2013-02-10 16:18:00,57.9,54.0,29.77,South,173,0.0,-999.0,86,-99.99,,,0.70,86,weatherlink.com 1.10,2013-02-10 22:18:00,
2013-02-10 16:33:00,57.6,54.0,29.78,South,189,2.0,-999.0,87,-99.99,,,0.70,39,weatherlink.com 1.10,2013-02-10 22:33:00,
2013-02-10 16:48:00,57.7,54.0,29.78,South,184,0.0,-999.0,87,-99.99,,,0.70,7,weatherlink.com 1.10,2013-02-10 22:48:00,
2013-02-10 17:03:00,57.9,54.0,29.79,South,175,3.0,-999.0,88,-99.99,,,0.70,9,weatherlink.com 1.10,2013-02-10 23:03:00,
2013-02-10 17:18:00,58.3,55.0,29.79,South,181,3.0,-999.0,89,-99.99,,,0.70,7,weatherlink.com 1.10,2013-02-10 23:18:00,
2013-02-10 17:33:00,58.7,56.0,29.79,South,186,3.0,-999.0,89,-99.99,,,0.70,0,weatherlink.com 1.10,2013-02-10 23:33:00,
2013-02-10 17:48:00,59.0,57.0,29.80,South,180,3.0,-999.0,92,-99.99,,,0.70,0,weatherlink.com 1.10,2013-02-10 23:48:00,
2013-02-10 18:03:00,59.0,56.0,29.81,South,191,3.0,-999.0,90,-99.99,,,0.70,0,weatherlink.com 1.10,2013-02-11 00:03:00,
2013-02-10 18:18:00,59.0,56.0,29.81,SSW,192,3.0,-999.0,90,-99.99,,,0.70,0,weatherlink.com 1.10,2013-02-11 00:18:00,
2013-02-10 18:33:00,59.3,57.0,29.82,South,190,2.0,-999.0,91,-99.99,,,0.70,0,weatherlink.com 1.10,2013-02-11 00:33:00,
2013-02-10 18:48:00,59.3,57.0,29.82,SW,226,3.0,-999.0,91,-99.99,,,0.70,0,weatherlink.com 1.10,2013-02-11 00:48:00,
2013-02-10 19:03:00,59.4,57.0,29.83,South,180,3.0,-999.0,91,-99.99,,,0.70,0,weatherlink.com 1.10,2013-02-11 01:03:00,
2013-02-10 19:18:00,59.4,57.0,29.83,South,186,3.0,-999.0,91,-99.99,,,0.70,0,weatherlink.com 1.10,2013-02-11 01:18:00,
2013-02-10 19:33:00,59.4,57.0,29.84,SSW,196,1.0,-999.0,91,-99.99,,,0.70,0,weatherlink.com 1.10,2013-02-11 01:33:00,
2013-02-10 19:48:00,59.4,57.0,29.85,SSW,196,0.0,-999.0,91,-99.99,,,0.70,0,weatherlink.com 1.10,2013-02-11 01:48:00,
2013-02-10 20:03:00,59.2,57.0,29.86,SSW,196,0.0,-999.0,91,-99.99,,,0.70,0,weatherlink.com 1.10,2013-02-11 02:03:00,
2013-02-10 20:18:00,59.0,56.0,29.86,South,187,0.0,-999.0,90,-99.99,,,0.70,0,weatherlink.com 1.10,2013-02-11 02:18:00,
2013-02-10 20:33:00,59.0,56.0,29.87,SW,214,0.0,-999.0,91,-99.99,,,0.70,0,weatherlink.com 1.10,2013-02-11 02:33:00,
2013-02-10 20:48:00,59.0,56.0,29.88,SW,220,4.0,-999.0,91,-99.99,,,0.70,0,weatherlink.com 1.10,2013-02-11 02:48:00,
2013-02-10 21:03:00,58.7,56.0,29.88,SW,215,0.0,-999.0,91,-99.99,,,0.70,0,weatherlink.com 1.10,2013-02-11 03:03:00,
2013-02-10 21:18:00,58.6,56.0,29.88,SW,219,4.0,-999.0,91,-99.99,,,0.70,0,weatherlink.com 1.10,2013-02-11 03:18:00,
2013-02-10 21:33:00,58.5,56.0,29.88,South,190,3.0,-999.0,91,-99.99,,,0.70,0,weatherlink.com 1.10,2013-02-11 03:33:00,
2013-02-10 21:48:00,58.4,56.0,29.90,South,188,1.0,-999.0,91,-99.99,,,0.70,0,weatherlink.com 1.10,2013-02-11 03:48:00,
2013-02-10 22:03:00,58.1,56.0,29.90,SW,215,2.0,-999.0,92,-99.99,,,0.70,0,weatherlink.com 1.10,2013-02-11 04:03:00,
2013-02-10 22:18:00,58.0,56.0,29.90,SSW,198,2.0,-999.0,92,-99.99,,,0.70,0,weatherlink.com 1.10,2013-02-11 04:18:00,
2013-02-10 22:33:00,57.9,56.0,29.91,South,189,1.0,-999.0,92,-99.99,,,0.70,0,weatherlink.com 1.10,2013-02-11 04:33:00,
2013-02-10 22:48:00,57.7,55.0,29.92,SW,217,0.0,-999.0,91,-99.99,,,0.70,0,weatherlink.com 1.10,2013-02-11 04:48:00,
2013-02-10 23:03:00,57.2,55.0,29.93,SSW,203,3.0,-999.0,91,-99.99,,,0.70,0,weatherlink.com 1.10,2013-02-11 05:03:00,
2013-02-10 23:18:00,56.8,54.0,29.94,SW,231,1.0,-999.0,90,-99.99,,,0.70,0,weatherlink.com 1.10,2013-02-11 05:18:00,
2013-02-10 23:33:00,56.4,54.0,29.94,SW,228,1.0,-999.0,90,-99.99,,,0.70,0,weatherlink.com 1.10,2013-02-11 05:33:00,
2013-02-10 23:48:00,56.2,53.0,29.95,WSW,250,1.0,-999.0,90,-99.99,,,0.70,0,weatherlink.com 1.10,2013-02-11 05:48:00,